createdAt,value
2023-05-15T00:00:25.734Z,7.13
2023-05-15T00:01:28.279Z,7.23
2023-05-15T00:02:31.046Z,6.18
2023-05-15T00:03:33.817Z,5.91
2023-05-15T00:04:36.628Z,6.38
2023-05-15T00:05:39.273Z,7.93
2023-05-15T00:06:42.152Z,7.61
2023-05-15T00:07:45.015Z,7.24
2023-05-15T00:08:47.686Z,6.21
2023-05-15T00:09:50.558Z,5.72
2023-05-15T00:11:01.344Z,5.83
2023-05-15T00:11:57.847Z,5.85
2023-05-15T00:13:00.717Z,5.80
2023-05-15T00:14:03.595Z,5.86
2023-05-15T00:15:06.467Z,5.80
2023-05-15T00:16:09.552Z,5.78
2023-05-15T00:17:12.432Z,5.86
2023-05-15T00:18:15.420Z,5.84
2023-05-15T00:19:18.371Z,5.15
2023-05-15T00:20:21.258Z,5.38
2023-05-15T00:21:24.037Z,5.53
2023-05-15T00:22:26.906Z,5.12
2023-05-15T00:23:29.802Z,4.55
2023-05-15T00:24:32.654Z,4.30
2023-05-15T00:25:35.532Z,4.43
2023-05-15T00:26:38.295Z,4.29
2023-05-15T00:27:41.181Z,4.22
2023-05-15T00:28:43.956Z,4.58
2023-05-15T00:29:46.841Z,4.25
2023-05-15T00:30:49.606Z,4.05
2023-05-15T00:31:52.620Z,4.08
2023-05-15T00:32:55.268Z,3.68
2023-05-15T00:33:57.918Z,3.46
2023-05-15T00:35:00.589Z,2.95
2023-05-15T00:36:03.252Z,3.44
2023-05-15T00:37:05.925Z,3.98
2023-05-15T00:38:08.590Z,9.95
2023-05-15T00:39:11.269Z,8.95
2023-05-15T00:40:13.831Z,4.46
2023-05-15T00:41:16.508Z,4.92
2023-05-15T00:42:19.175Z,4.42
2023-05-15T00:43:21.658Z,4.26
2023-05-15T00:44:24.559Z,3.62
2023-05-15T00:45:27.186Z,4.05
2023-05-15T00:46:30.005Z,5.10
2023-05-15T00:47:32.678Z,4.18
2023-05-15T00:48:35.399Z,4.06
2023-05-15T00:49:38.080Z,3.72
2023-05-15T00:50:40.632Z,3.61
2023-05-15T00:51:43.414Z,4.06
2023-05-15T00:52:46.121Z,4.50
2023-05-15T00:53:49.169Z,4.72
2023-05-15T00:54:52.334Z,4.81
2023-05-15T00:55:55.122Z,3.68
2023-05-15T00:56:58.020Z,3.62
2023-05-15T00:58:00.870Z,4.55
2023-05-15T00:59:03.738Z,4.44
2023-05-15T01:00:06.818Z,3.96
2023-05-15T01:01:09.719Z,4.16
2023-05-15T01:02:12.493Z,4.18
2023-05-15T01:03:15.302Z,4.20
2023-05-15T01:04:18.110Z,3.95
2023-05-15T01:05:20.911Z,3.85
2023-05-15T01:06:23.555Z,4.16
2023-05-15T01:07:26.425Z,3.88
2023-05-15T01:08:29.311Z,4.69
2023-05-15T01:09:32.078Z,3.22
2023-05-15T01:10:35.158Z,3.72
2023-05-15T01:11:38.027Z,4.61
2023-05-15T01:12:40.910Z,6.02
2023-05-15T01:13:43.806Z,4.92
2023-05-15T01:14:46.653Z,4.55
2023-05-15T01:15:49.721Z,5.50
2023-05-15T01:16:52.616Z,3.39
2023-05-15T01:17:55.445Z,3.63
2023-05-15T01:18:58.292Z,4.10
2023-05-15T01:20:00.972Z,4.21
2023-05-15T01:21:03.793Z,3.72
2023-05-15T01:22:06.670Z,5.84
2023-05-15T01:23:09.304Z,4.32
2023-05-15T01:24:11.902Z,4.98
2023-05-15T01:25:14.493Z,4.86
2023-05-15T01:26:17.048Z,5.08
2023-05-15T01:27:19.606Z,5.87
2023-05-15T01:28:22.297Z,4.42
2023-05-15T01:29:24.955Z,4.53
2023-05-15T01:30:27.525Z,4.59
2023-05-15T01:31:30.321Z,5.18
2023-05-15T01:32:33.089Z,4.37
2023-05-15T01:33:35.952Z,4.45
2023-05-15T01:34:38.909Z,4.68
2023-05-15T01:35:41.793Z,5.53
2023-05-15T01:36:44.879Z,3.92
2023-05-15T01:37:47.645Z,4.02
2023-05-15T01:38:50.651Z,4.11
2023-05-15T01:39:53.699Z,5.05
2023-05-15T01:40:56.577Z,4.80
2023-05-15T01:41:59.443Z,5.12
2023-05-15T01:43:02.323Z,5.37
2023-05-15T01:44:05.402Z,4.98
2023-05-15T01:45:08.296Z,4.32
2023-05-15T01:46:11.173Z,4.15
2023-05-15T01:47:15.062Z,4.18
2023-05-15T01:48:17.937Z,4.26
2023-05-15T01:49:20.813Z,4.81
2023-05-15T01:50:23.981Z,4.48
2023-05-15T01:51:26.761Z,4.51
2023-05-15T01:52:29.619Z,4.14
2023-05-15T01:53:32.705Z,4.08
2023-05-15T01:54:35.378Z,4.10
2023-05-15T01:55:38.254Z,3.87
2023-05-15T01:56:41.124Z,3.27
2023-05-15T01:57:44.100Z,3.62
2023-05-15T01:58:46.773Z,4.13
2023-05-15T01:59:49.538Z,3.45
2023-05-15T02:00:52.434Z,3.96
2023-05-15T02:01:55.235Z,3.35
2023-05-15T02:02:58.608Z,4.04
2023-05-15T02:04:01.681Z,4.83
2023-05-15T02:05:04.530Z,3.58
2023-05-15T02:06:07.416Z,3.37
2023-05-15T02:07:10.067Z,3.86
2023-05-15T02:08:12.849Z,3.79
2023-05-15T02:09:15.616Z,4.34
2023-05-15T02:10:18.495Z,3.87
2023-05-15T02:11:21.374Z,3.56
2023-05-15T02:12:24.041Z,3.05
2023-05-15T02:13:27.011Z,3.22
2023-05-15T02:14:29.899Z,3.17
2023-05-15T02:15:32.759Z,3.45
2023-05-15T02:16:35.688Z,3.34
2023-05-15T02:17:38.550Z,3.31
2023-05-15T02:18:41.863Z,3.42
2023-05-15T02:19:44.676Z,2.97
2023-05-15T02:20:47.554Z,2.61
2023-05-15T02:21:50.422Z,2.84
2023-05-15T02:22:53.091Z,3.82
2023-05-15T02:23:55.760Z,3.65
2023-05-15T02:24:58.440Z,2.62
2023-05-15T02:26:01.006Z,2.65
2023-05-15T02:27:03.675Z,2.65
2023-05-15T02:28:06.444Z,3.04
2023-05-15T02:29:09.524Z,2.69
2023-05-15T02:30:12.200Z,2.87
2023-05-15T02:31:14.901Z,2.78
2023-05-15T02:32:17.487Z,3.06
2023-05-15T02:33:20.005Z,2.44
2023-05-15T02:34:22.660Z,2.56
2023-05-15T02:35:25.534Z,3.38
2023-05-15T02:36:28.314Z,3.16
2023-05-15T02:37:30.878Z,2.92
2023-05-15T02:38:33.456Z,2.82
2023-05-15T02:39:36.132Z,2.75
2023-05-15T02:40:38.698Z,2.99
2023-05-15T02:41:41.363Z,3.29
2023-05-15T02:42:44.133Z,2.97
2023-05-15T02:43:46.808Z,3.22
2023-05-15T02:44:49.782Z,3.47
2023-05-15T02:45:52.478Z,3.15
2023-05-15T02:46:55.016Z,3.66
2023-05-15T02:47:57.720Z,3.26
2023-05-15T02:49:00.350Z,2.91
2023-05-15T02:50:03.124Z,2.37
2023-05-15T02:51:05.786Z,2.45
2023-05-15T02:52:08.485Z,2.20
2023-05-15T02:53:11.131Z,2.22
2023-05-15T02:54:13.797Z,2.38
2023-05-15T02:55:16.680Z,2.79
2023-05-15T02:56:20.607Z,2.55
2023-05-15T02:57:23.144Z,2.39
2023-05-15T02:58:25.807Z,2.52
2023-05-15T02:59:28.387Z,2.65
2023-05-15T03:00:31.054Z,2.52
2023-05-15T03:01:33.670Z,2.78
2023-05-15T03:02:36.421Z,2.64
2023-05-15T03:03:39.087Z,2.35
2023-05-15T03:04:41.865Z,2.31
2023-05-15T03:05:44.826Z,2.51
2023-05-15T03:06:47.599Z,2.51
2023-05-15T03:07:50.463Z,2.72
2023-05-15T03:08:53.332Z,2.12
2023-05-15T03:09:56.124Z,2.24
2023-05-15T03:10:59.066Z,2.25
2023-05-15T03:12:01.852Z,2.42
2023-05-15T03:13:04.631Z,2.60
2023-05-15T03:14:07.297Z,2.80
2023-05-15T03:15:10.439Z,2.70
2023-05-15T03:16:13.034Z,2.65
2023-05-15T03:17:16.010Z,2.57
2023-05-15T03:18:19.126Z,2.39
2023-05-15T03:19:22.063Z,2.75
2023-05-15T03:20:24.938Z,2.97
2023-05-15T03:21:28.113Z,3.19
2023-05-15T03:22:31.190Z,2.87
2023-05-15T03:23:36.316Z,2.84
2023-05-15T03:24:39.003Z,2.95
2023-05-15T03:25:41.660Z,3.75
2023-05-15T03:26:45.065Z,2.72
2023-05-15T03:27:48.332Z,2.53
2023-05-15T03:28:51.716Z,1.89
2023-05-15T03:29:54.897Z,1.45
2023-05-15T03:30:57.935Z,1.54
2023-05-15T03:32:01.166Z,1.37
2023-05-15T03:33:04.400Z,1.38
2023-05-15T03:34:07.731Z,1.44
2023-05-15T03:35:10.925Z,1.73
2023-05-15T03:36:14.090Z,1.50
2023-05-15T03:37:17.177Z,1.83
2023-05-15T03:38:20.249Z,1.56
2023-05-15T03:39:23.534Z,1.45
2023-05-15T03:40:26.831Z,1.48
2023-05-15T03:41:30.000Z,1.82
2023-05-15T03:42:33.493Z,1.92
2023-05-15T03:43:36.875Z,1.73
2023-05-15T03:44:40.085Z,1.47
2023-05-15T03:45:43.355Z,1.28
2023-05-15T03:46:46.555Z,1.66
2023-05-15T03:47:50.280Z,1.72
2023-05-15T03:48:53.299Z,1.60
2023-05-15T03:49:56.586Z,1.78
2023-05-15T03:50:59.588Z,1.66
2023-05-15T03:52:02.540Z,1.26
2023-05-15T03:53:05.617Z,1.46
2023-05-15T03:54:08.600Z,1.27
2023-05-15T03:55:11.475Z,1.39
2023-05-15T03:56:14.549Z,1.11
2023-05-15T03:57:17.733Z,1.21
2023-05-15T03:58:22.550Z,1.15
2023-05-15T03:59:25.532Z,1.06
2023-05-15T04:00:28.410Z,1.25
2023-05-15T04:01:31.301Z,0.87
2023-05-15T04:02:34.082Z,1.22
2023-05-15T04:03:37.160Z,1.15
2023-05-15T04:04:40.219Z,0.99
2023-05-15T04:05:43.229Z,1.00
2023-05-15T04:06:45.953Z,0.95
2023-05-15T04:07:48.746Z,1.21
2023-05-15T04:08:51.812Z,1.32
2023-05-15T04:09:54.894Z,1.14
2023-05-15T04:10:57.765Z,1.13
2023-05-15T04:12:00.650Z,1.33
2023-05-15T04:13:03.721Z,1.22
2023-05-15T04:14:06.700Z,1.31
2023-05-15T04:15:09.575Z,1.25
2023-05-15T04:16:12.586Z,0.84
2023-05-15T04:17:15.338Z,1.28
2023-05-15T04:18:18.125Z,1.12
2023-05-15T04:19:21.078Z,1.12
2023-05-15T04:20:24.222Z,1.16
2023-05-15T04:21:27.330Z,1.12
2023-05-15T04:22:30.532Z,1.17
2023-05-15T04:23:33.492Z,1.12
2023-05-15T04:24:36.872Z,1.18
2023-05-15T04:25:39.854Z,1.22
2023-05-15T04:26:43.149Z,1.25
2023-05-15T04:27:46.430Z,1.20
2023-05-15T04:29:00.126Z,1.19
2023-05-15T04:29:54.215Z,1.26
2023-05-15T04:30:57.292Z,1.24
2023-05-15T04:32:00.346Z,1.26
2023-05-15T04:33:03.395Z,1.07
2023-05-15T04:34:06.331Z,0.91
2023-05-15T04:35:09.640Z,1.02
2023-05-15T04:36:12.913Z,0.88
2023-05-15T04:37:16.079Z,1.15
2023-05-15T04:38:19.365Z,0.96
2023-05-15T04:39:22.546Z,0.92
2023-05-15T04:40:25.624Z,0.89
2023-05-15T04:41:28.606Z,1.14
2023-05-15T04:42:31.788Z,1.12
2023-05-15T04:43:34.960Z,1.19
2023-05-15T04:44:38.058Z,1.05
2023-05-15T04:45:41.354Z,1.16
2023-05-15T04:46:44.624Z,1.09
2023-05-15T04:47:47.738Z,1.05
2023-05-15T04:48:53.335Z,1.10
2023-05-15T04:49:56.517Z,0.91
2023-05-15T04:50:59.825Z,0.97
2023-05-15T04:52:02.881Z,0.82
2023-05-15T04:53:06.158Z,0.96
2023-05-15T04:54:09.248Z,0.99
2023-05-15T04:55:12.536Z,0.95
2023-05-15T04:56:15.511Z,0.89
2023-05-15T04:57:18.608Z,0.82
2023-05-15T04:58:21.870Z,0.99
2023-05-15T04:59:24.942Z,0.97
2023-05-15T05:00:28.024Z,0.94
2023-05-15T05:01:31.322Z,0.78
2023-05-15T05:02:34.466Z,1.12
2023-05-15T05:03:38.241Z,1.05
2023-05-15T05:04:41.478Z,0.89
2023-05-15T05:05:44.446Z,0.90
2023-05-15T05:06:47.427Z,0.86
2023-05-15T05:07:50.301Z,0.78
2023-05-15T05:08:53.180Z,0.75
2023-05-15T05:09:55.944Z,0.82
2023-05-15T05:10:59.134Z,0.80
2023-05-15T05:12:01.911Z,0.85
2023-05-15T05:13:04.880Z,1.01
2023-05-15T05:14:07.958Z,0.87
2023-05-15T05:15:11.048Z,0.85
2023-05-15T05:16:14.051Z,0.79
2023-05-15T05:17:17.406Z,0.72
2023-05-15T05:18:20.481Z,0.78
2023-05-15T05:19:23.766Z,0.79
2023-05-15T05:20:26.744Z,0.85
2023-05-15T05:21:29.819Z,0.88
2023-05-15T05:22:33.110Z,1.01
2023-05-15T05:23:35.980Z,0.85
2023-05-15T05:24:38.962Z,0.82
2023-05-15T05:25:42.177Z,0.87
2023-05-15T05:26:45.351Z,0.77
2023-05-15T05:27:48.604Z,1.00
2023-05-15T05:28:51.683Z,0.78
2023-05-15T05:29:54.555Z,0.58
2023-05-15T05:30:57.546Z,0.74
2023-05-15T05:32:01.056Z,0.85
2023-05-15T05:33:04.378Z,0.78
2023-05-15T05:34:07.386Z,0.85
2023-05-15T05:35:10.585Z,0.93
2023-05-15T05:36:13.755Z,0.74
2023-05-15T05:37:16.838Z,0.85
2023-05-15T05:38:20.013Z,0.91
2023-05-15T05:39:23.194Z,0.84
2023-05-15T05:40:26.581Z,0.93
2023-05-15T05:41:29.662Z,0.90
2023-05-15T05:42:32.445Z,0.94
2023-05-15T05:43:35.314Z,1.09
2023-05-15T05:44:38.085Z,1.01
2023-05-15T05:45:40.860Z,0.95
2023-05-15T05:46:43.658Z,0.92
2023-05-15T05:47:46.415Z,1.02
2023-05-15T05:48:49.377Z,0.82
2023-05-15T05:49:52.140Z,0.85
2023-05-15T05:50:54.916Z,0.84
2023-05-15T05:51:57.813Z,0.98
2023-05-15T05:53:00.560Z,0.84
2023-05-15T05:54:03.549Z,0.91
2023-05-15T05:55:06.540Z,0.94
2023-05-15T05:56:10.729Z,1.03
2023-05-15T05:57:13.703Z,0.94
2023-05-15T05:58:24.909Z,1.11
2023-05-15T05:59:21.183Z,1.00
2023-05-15T06:00:23.966Z,1.03
2023-05-15T06:01:26.837Z,0.92
2023-05-15T06:02:29.771Z,0.93
2023-05-15T06:03:32.541Z,1.02
2023-05-15T06:04:35.902Z,0.88
2023-05-15T06:05:38.643Z,1.20
2023-05-15T06:06:41.429Z,0.75
2023-05-15T06:07:44.597Z,1.00
2023-05-15T06:08:47.684Z,0.99
2023-05-15T06:09:52.190Z,0.75
2023-05-15T06:10:55.376Z,0.79
2023-05-15T06:11:58.145Z,0.79
2023-05-15T06:13:01.113Z,0.62
2023-05-15T06:14:05.333Z,0.68
2023-05-15T06:15:08.912Z,0.63
2023-05-15T06:16:11.937Z,0.74
2023-05-15T06:17:14.724Z,0.85
2023-05-15T06:18:17.440Z,0.67
2023-05-15T06:19:20.389Z,0.71
2023-05-15T06:20:23.525Z,0.72
2023-05-15T06:21:26.384Z,0.59
2023-05-15T06:22:29.146Z,0.69
2023-05-15T06:23:31.940Z,0.71
2023-05-15T06:24:34.584Z,0.70
2023-05-15T06:25:37.702Z,0.68
2023-05-15T06:26:40.550Z,0.60
2023-05-15T06:27:43.417Z,0.58
2023-05-15T06:28:46.084Z,0.52
2023-05-15T06:29:48.859Z,0.52
2023-05-15T06:30:51.971Z,0.57
2023-05-15T06:31:54.712Z,0.40
2023-05-15T06:32:57.531Z,0.40
2023-05-15T06:34:00.255Z,0.46
2023-05-15T06:35:03.225Z,0.41
2023-05-15T06:36:06.211Z,0.43
2023-05-15T06:37:08.980Z,0.45
2023-05-15T06:38:12.137Z,0.42
2023-05-15T06:39:15.147Z,0.54
2023-05-15T06:40:18.128Z,0.61
2023-05-15T06:41:20.892Z,0.63
2023-05-15T06:42:23.664Z,0.42
2023-05-15T06:43:26.531Z,0.51
2023-05-15T06:44:29.303Z,0.52
2023-05-15T06:45:32.403Z,0.50
2023-05-15T06:46:35.247Z,0.53
2023-05-15T06:47:37.990Z,0.49
2023-05-15T06:48:41.015Z,0.55
2023-05-15T06:49:44.100Z,0.44
2023-05-15T06:50:47.185Z,0.52
2023-05-15T06:51:50.458Z,0.64
2023-05-15T06:52:53.532Z,0.44
2023-05-15T06:53:56.721Z,0.60
2023-05-15T06:55:00.006Z,0.57
2023-05-15T06:56:03.087Z,0.55
2023-05-15T06:57:06.271Z,0.50
2023-05-15T06:58:09.350Z,0.49
2023-05-15T06:59:12.202Z,0.45
2023-05-15T07:00:14.907Z,0.50
2023-05-15T07:01:17.601Z,0.65
2023-05-15T07:02:20.434Z,0.55
2023-05-15T07:03:23.200Z,0.52
2023-05-15T07:04:26.009Z,0.58
2023-05-15T07:05:28.751Z,0.57
2023-05-15T07:06:31.629Z,0.51
2023-05-15T07:07:34.397Z,0.58
2023-05-15T07:08:37.175Z,0.75
2023-05-15T07:09:39.947Z,0.58
2023-05-15T07:10:43.226Z,0.60
2023-05-15T07:11:46.306Z,0.64
2023-05-15T07:12:49.481Z,0.71
2023-05-15T07:13:52.792Z,0.76
2023-05-15T07:14:56.060Z,0.56
2023-05-15T07:15:59.129Z,0.77
2023-05-15T07:17:02.117Z,0.60
2023-05-15T07:18:05.622Z,0.60
2023-05-15T07:19:08.922Z,0.65
2023-05-15T07:20:11.882Z,0.61
2023-05-15T07:21:14.840Z,0.71
2023-05-15T07:22:17.818Z,0.71
2023-05-15T07:23:21.097Z,0.64
2023-05-15T07:24:24.075Z,0.79
2023-05-15T07:25:27.419Z,0.87
2023-05-15T07:26:34.738Z,0.77
2023-05-15T07:27:35.159Z,0.75
2023-05-15T07:28:37.934Z,0.62
2023-05-15T07:29:40.495Z,0.82
2023-05-15T07:30:43.271Z,0.70
2023-05-15T07:31:46.114Z,0.65
2023-05-15T07:32:48.841Z,0.91
2023-05-15T07:33:51.587Z,0.90
2023-05-15T07:34:54.359Z,1.12
2023-05-15T07:35:57.226Z,1.16
2023-05-15T07:37:00.411Z,1.02
2023-05-15T07:38:03.520Z,1.07
2023-05-15T07:39:06.573Z,1.12
2023-05-15T07:40:09.345Z,1.06
2023-05-15T07:41:12.325Z,1.03
2023-05-15T07:42:15.295Z,1.02
2023-05-15T07:43:18.379Z,1.02
2023-05-15T07:44:21.555Z,0.97
2023-05-15T07:45:24.809Z,1.22
2023-05-15T07:46:27.948Z,1.12
2023-05-15T07:47:33.988Z,0.86
2023-05-15T07:48:36.846Z,1.02
2023-05-15T07:49:40.136Z,0.84
2023-05-15T07:50:43.207Z,0.86
2023-05-15T07:51:46.087Z,1.05
2023-05-15T07:52:49.176Z,0.98
2023-05-15T07:53:52.144Z,1.17
2023-05-15T07:54:55.230Z,0.98
2023-05-15T07:55:58.299Z,1.20
2023-05-15T07:57:01.283Z,1.20
2023-05-15T07:58:04.356Z,1.56
2023-05-15T07:59:07.048Z,1.32
2023-05-15T08:00:10.510Z,1.23
2023-05-15T08:01:13.493Z,1.62
2023-05-15T08:02:16.617Z,1.90
2023-05-15T08:03:19.819Z,2.28
2023-05-15T08:04:23.086Z,2.20
2023-05-15T08:05:26.759Z,1.94
2023-05-15T08:06:30.114Z,1.44
2023-05-15T08:07:33.000Z,1.64
2023-05-15T08:08:36.176Z,2.13
2023-05-15T08:09:39.270Z,2.45
2023-05-15T08:10:42.548Z,1.94
2023-05-15T08:11:45.515Z,1.95
2023-05-15T08:12:48.591Z,1.82
2023-05-15T08:13:51.692Z,1.34
2023-05-15T08:14:54.756Z,1.09
2023-05-15T08:15:58.088Z,1.10
2023-05-15T08:17:01.529Z,1.28
2023-05-15T08:18:04.424Z,1.12
2023-05-15T08:19:07.715Z,1.07
2023-05-15T08:20:10.769Z,0.86
2023-05-15T08:21:13.846Z,0.90
2023-05-15T08:22:16.717Z,0.82
2023-05-15T08:23:19.801Z,0.94
2023-05-15T08:24:22.773Z,1.19
2023-05-15T08:25:26.005Z,0.82
2023-05-15T08:26:29.665Z,0.91
2023-05-15T08:27:32.454Z,0.90
2023-05-15T08:28:35.400Z,1.05
2023-05-15T08:29:39.670Z,0.93
2023-05-15T08:30:42.480Z,0.96
2023-05-15T08:31:45.493Z,0.92
2023-05-15T08:32:48.014Z,0.98
2023-05-15T08:33:50.898Z,0.90
2023-05-15T08:34:53.671Z,0.98
2023-05-15T08:35:56.376Z,1.38
2023-05-15T08:36:59.425Z,1.22
2023-05-15T08:38:02.190Z,1.02
2023-05-15T08:39:05.173Z,1.04
2023-05-15T08:40:08.284Z,1.21
2023-05-15T08:41:11.031Z,1.34
2023-05-15T08:42:14.102Z,1.93
2023-05-15T08:43:16.785Z,2.17
2023-05-15T08:44:19.643Z,1.73
2023-05-15T08:45:22.477Z,1.74
2023-05-15T08:46:25.311Z,1.52
2023-05-15T08:47:28.287Z,1.58
2023-05-15T08:48:31.083Z,1.51
2023-05-15T08:49:34.018Z,1.65
2023-05-15T08:50:36.998Z,1.45
2023-05-15T08:51:39.778Z,1.47
2023-05-15T08:52:42.657Z,1.39
2023-05-15T08:53:45.414Z,1.52
2023-05-15T08:54:48.637Z,1.84
2023-05-15T08:55:51.376Z,1.79
2023-05-15T08:56:54.047Z,1.77
2023-05-15T08:57:56.924Z,1.86
2023-05-15T08:58:59.725Z,1.88
2023-05-15T09:00:02.500Z,2.13
2023-05-15T09:01:05.341Z,1.96
2023-05-15T09:02:08.296Z,1.93
2023-05-15T09:03:11.399Z,1.85
2023-05-15T09:04:14.107Z,2.08
2023-05-15T09:05:17.050Z,1.92
2023-05-15T09:06:20.119Z,1.75
2023-05-15T09:07:23.099Z,1.87
2023-05-15T09:08:26.376Z,1.94
2023-05-15T09:09:29.252Z,1.75
2023-05-15T09:10:32.233Z,1.90
2023-05-15T09:11:35.328Z,2.02
2023-05-15T09:12:38.298Z,2.28
2023-05-15T09:13:41.884Z,2.37
2023-05-15T09:14:44.869Z,2.52
2023-05-15T09:15:47.838Z,3.09
2023-05-15T09:16:51.160Z,2.62
2023-05-15T09:17:54.326Z,2.70
2023-05-15T09:18:57.393Z,3.00
2023-05-15T09:20:00.253Z,2.80
2023-05-15T09:21:02.924Z,2.99
2023-05-15T09:22:05.799Z,2.60
2023-05-15T09:23:08.565Z,2.32
2023-05-15T09:24:11.562Z,2.55
2023-05-15T09:25:14.220Z,2.55
2023-05-15T09:26:17.100Z,2.17
2023-05-15T09:27:20.068Z,2.57
2023-05-15T09:28:23.153Z,2.43
2023-05-15T09:29:26.244Z,2.75
2023-05-15T09:30:29.113Z,2.49
2023-05-15T09:31:32.104Z,2.45
2023-05-15T09:32:35.089Z,2.38
2023-05-15T09:33:38.034Z,2.41
2023-05-15T09:34:41.540Z,2.32
2023-05-15T09:35:44.499Z,2.22
2023-05-15T09:36:47.485Z,2.42
2023-05-15T09:37:50.460Z,2.88
2023-05-15T09:38:53.545Z,2.52
2023-05-15T09:39:56.650Z,2.56
2023-05-15T09:40:59.691Z,2.67
2023-05-15T09:42:02.674Z,2.83
2023-05-15T09:43:05.754Z,2.93
2023-05-15T09:44:08.726Z,4.05
2023-05-15T09:45:12.115Z,4.18
2023-05-15T09:46:15.218Z,3.42
2023-05-15T09:47:18.342Z,3.19
2023-05-15T09:48:21.396Z,3.15
2023-05-15T09:49:24.635Z,3.02
2023-05-15T09:50:27.934Z,3.05
2023-05-15T09:51:31.307Z,3.02
2023-05-15T09:52:34.806Z,3.24
2023-05-15T09:53:37.566Z,3.38
2023-05-15T09:54:40.245Z,3.68
2023-05-15T09:55:43.216Z,3.31
2023-05-15T09:56:45.885Z,3.16
2023-05-15T09:57:48.655Z,3.25
2023-05-15T09:58:51.429Z,3.31
2023-05-15T09:59:54.095Z,3.23
2023-05-15T10:00:56.979Z,3.48
2023-05-15T10:01:59.759Z,3.92
2023-05-15T10:03:02.507Z,4.15
2023-05-15T10:04:05.594Z,3.97
2023-05-15T10:05:08.461Z,4.43
2023-05-15T10:06:11.337Z,3.94
2023-05-15T10:07:14.221Z,4.66
2023-05-15T10:08:16.994Z,5.04
2023-05-15T10:09:19.562Z,4.68
2023-05-15T10:10:22.611Z,4.62
2023-05-15T10:11:25.306Z,4.54
2023-05-15T10:12:28.095Z,4.27
2023-05-15T10:13:30.861Z,4.58
2023-05-15T10:14:33.524Z,4.60
2023-05-15T10:15:36.215Z,4.82
2023-05-15T10:16:39.343Z,4.72
2023-05-15T10:17:42.263Z,3.90
2023-05-15T10:18:45.306Z,4.45
2023-05-15T10:19:57.739Z,4.87
2023-05-15T10:20:52.617Z,4.71
2023-05-15T10:21:55.792Z,4.45
2023-05-15T10:22:58.877Z,4.39
2023-05-15T10:24:01.980Z,4.82
2023-05-15T10:25:04.934Z,4.58
2023-05-15T10:26:08.012Z,4.72
2023-05-15T10:27:11.192Z,4.22
2023-05-15T10:28:14.066Z,4.08
2023-05-15T10:29:17.049Z,3.88
2023-05-15T10:30:20.121Z,3.80
2023-05-15T10:31:22.923Z,3.67
2023-05-15T10:32:26.007Z,3.55
2023-05-15T10:33:28.864Z,3.63
2023-05-15T10:34:31.932Z,3.65
2023-05-15T10:35:34.808Z,3.75
2023-05-15T10:36:38.079Z,3.46
2023-05-15T10:37:43.421Z,3.86
2023-05-15T10:38:46.304Z,4.05
2023-05-15T10:39:49.472Z,3.60
2023-05-15T10:40:57.674Z,3.42
2023-05-15T10:41:56.866Z,3.27
2023-05-15T10:43:00.378Z,3.27
2023-05-15T10:44:03.337Z,3.57
2023-05-15T10:45:06.408Z,3.23
2023-05-15T10:46:09.386Z,3.56
2023-05-15T10:47:12.624Z,3.69
2023-05-15T10:48:15.983Z,3.60
2023-05-15T10:49:18.725Z,3.58
2023-05-15T10:50:21.819Z,4.03
2023-05-15T10:51:24.784Z,4.35
2023-05-15T10:52:28.997Z,4.59
2023-05-15T10:53:32.279Z,4.40
2023-05-15T10:54:35.352Z,4.39
2023-05-15T10:55:38.637Z,4.20
2023-05-15T10:56:42.027Z,4.55
2023-05-15T10:57:45.106Z,3.89
2023-05-15T10:58:48.699Z,4.05
2023-05-15T10:59:52.095Z,3.58
2023-05-15T11:00:55.111Z,3.21
2023-05-15T11:01:58.037Z,3.19
2023-05-15T11:03:01.425Z,3.20
2023-05-15T11:04:04.437Z,3.61
2023-05-15T11:05:07.278Z,3.12
2023-05-15T11:06:09.945Z,3.31
2023-05-15T11:07:13.043Z,3.51
2023-05-15T11:08:15.999Z,3.61
2023-05-15T11:09:19.085Z,3.41
2023-05-15T11:10:21.748Z,3.38
2023-05-15T11:11:24.431Z,3.60
2023-05-15T11:12:27.091Z,3.56
2023-05-15T11:13:29.755Z,3.83
2023-05-15T11:14:32.530Z,3.70
2023-05-15T11:15:35.095Z,4.09
2023-05-15T11:16:37.911Z,4.23
2023-05-15T11:17:40.578Z,3.90
2023-05-15T11:18:43.332Z,4.15
2023-05-15T11:19:46.029Z,4.30
2023-05-15T11:20:48.980Z,4.27
2023-05-15T11:21:51.742Z,4.49
2023-05-15T11:22:54.718Z,4.55
2023-05-15T11:23:57.476Z,5.26
2023-05-15T11:25:00.147Z,8.91
2023-05-15T11:26:02.825Z,14.85
2023-05-15T11:27:05.489Z,13.06
2023-05-15T11:28:08.159Z,10.84
2023-05-15T11:29:10.730Z,8.43
2023-05-15T11:30:13.697Z,6.82
2023-05-15T11:31:16.398Z,6.17
2023-05-15T11:32:19.045Z,6.33
2023-05-15T11:33:21.719Z,5.16
2023-05-15T11:34:24.396Z,7.80
2023-05-15T11:35:26.955Z,5.18
2023-05-15T11:36:29.625Z,4.62
2023-05-15T11:37:32.293Z,4.70
2023-05-15T11:38:35.278Z,4.54
2023-05-15T11:39:38.141Z,2.97
2023-05-15T11:40:41.126Z,3.32
2023-05-15T11:41:43.889Z,3.05
2023-05-15T11:42:46.760Z,3.51
2023-05-15T11:43:49.643Z,3.32
2023-05-15T11:44:52.412Z,3.58
2023-05-15T11:45:55.715Z,3.24
2023-05-15T11:46:58.644Z,3.00
2023-05-15T11:48:01.721Z,3.01
2023-05-15T11:49:04.723Z,3.23
2023-05-15T11:50:07.816Z,3.37
2023-05-15T11:51:10.577Z,3.65
2023-05-15T11:52:13.560Z,3.97
2023-05-15T11:53:16.438Z,4.40
2023-05-15T11:54:19.425Z,4.65
2023-05-15T11:55:22.391Z,4.84
2023-05-15T11:56:28.572Z,4.40
2023-05-15T11:57:31.413Z,4.11
2023-05-15T11:58:34.287Z,4.18
2023-05-15T11:59:36.969Z,3.67
2023-05-15T12:00:39.628Z,3.41
2023-05-15T12:01:42.319Z,3.17
2023-05-15T12:02:45.047Z,3.22
2023-05-15T12:03:48.175Z,2.52
2023-05-15T12:04:50.962Z,2.52
2023-05-15T12:05:59.659Z,2.42
2023-05-15T12:06:57.803Z,2.46
2023-05-15T12:08:00.371Z,2.78
2023-05-15T12:09:03.242Z,2.70
2023-05-15T12:10:06.324Z,2.95
2023-05-15T12:11:09.298Z,3.02
2023-05-15T12:12:12.492Z,3.02
2023-05-15T12:13:15.266Z,3.31
2023-05-15T12:14:18.234Z,3.15
2023-05-15T12:15:21.010Z,2.98
2023-05-15T12:16:24.036Z,3.18
2023-05-15T12:17:27.163Z,2.90
2023-05-15T12:18:29.737Z,2.75
2023-05-15T12:19:32.397Z,2.81
2023-05-15T12:20:35.379Z,2.62
2023-05-15T12:21:38.253Z,2.75
2023-05-15T12:22:41.434Z,2.21
2023-05-15T12:23:48.701Z,2.35
2023-05-15T12:24:49.069Z,2.43
2023-05-15T12:25:52.125Z,2.20
2023-05-15T12:26:57.315Z,2.56
2023-05-15T12:27:59.513Z,2.49
2023-05-15T12:29:02.522Z,2.52
2023-05-15T12:30:05.463Z,2.57
2023-05-15T12:31:08.428Z,2.54
2023-05-15T12:32:11.452Z,2.65
2023-05-15T12:33:14.508Z,2.65
2023-05-15T12:34:17.361Z,2.85
2023-05-15T12:35:20.346Z,2.78
2023-05-15T12:36:23.513Z,2.85
2023-05-15T12:37:26.393Z,2.93
2023-05-15T12:38:29.640Z,2.80
2023-05-15T12:39:32.447Z,2.91
2023-05-15T12:40:35.754Z,3.21
2023-05-15T12:41:38.718Z,3.38
2023-05-15T12:42:41.610Z,3.08
2023-05-15T12:43:44.870Z,3.20
2023-05-15T12:44:47.540Z,3.40
2023-05-15T12:45:50.669Z,3.73
2023-05-15T12:46:53.595Z,3.09
2023-05-15T12:47:56.817Z,3.30
2023-05-15T12:48:59.558Z,3.38
2023-05-15T12:50:02.065Z,3.29
2023-05-15T12:51:04.797Z,3.45
2023-05-15T12:52:07.554Z,3.27
2023-05-15T12:53:10.328Z,3.34
2023-05-15T12:54:13.099Z,3.64
2023-05-15T12:55:15.975Z,3.36
2023-05-15T12:56:18.647Z,3.15
2023-05-15T12:57:21.319Z,3.11
2023-05-15T12:58:24.399Z,3.33
2023-05-15T12:59:27.682Z,3.29
2023-05-15T13:00:30.973Z,3.42
2023-05-15T13:01:33.913Z,3.72
2023-05-15T13:02:37.262Z,3.02
2023-05-15T13:03:40.361Z,3.27
2023-05-15T13:04:43.395Z,3.12
2023-05-15T13:05:46.374Z,2.94
2023-05-15T13:06:49.023Z,3.21
2023-05-15T13:07:51.923Z,3.40
2023-05-15T13:08:54.777Z,3.32
2023-05-15T13:09:57.757Z,3.12
2023-05-15T13:11:00.751Z,2.99
2023-05-15T13:12:03.735Z,3.10
2023-05-15T13:13:06.580Z,2.89
2023-05-15T13:14:09.567Z,3.04
2023-05-15T13:15:12.430Z,3.02
2023-05-15T13:16:15.376Z,3.25
2023-05-15T13:17:17.975Z,3.24
2023-05-15T13:18:20.747Z,3.04
2023-05-15T13:19:23.529Z,3.28
2023-05-15T13:20:26.679Z,3.38
2023-05-15T13:21:29.472Z,3.41
2023-05-15T13:22:32.049Z,3.32
2023-05-15T13:23:34.609Z,4.18
2023-05-15T13:24:37.276Z,3.85
2023-05-15T13:25:40.154Z,4.70
2023-05-15T13:26:42.823Z,5.36
2023-05-15T13:27:45.390Z,6.79
2023-05-15T13:28:48.468Z,6.73
2023-05-15T13:29:51.138Z,6.60
2023-05-15T13:30:53.811Z,6.37
2023-05-15T13:31:56.563Z,5.60
2023-05-15T13:32:59.208Z,5.62
2023-05-15T13:34:01.827Z,6.21
2023-05-15T13:35:04.482Z,4.09
2023-05-15T13:36:07.164Z,3.65
2023-05-15T13:37:09.830Z,3.75
2023-05-15T13:38:12.611Z,3.87
2023-05-15T13:39:15.269Z,3.58
2023-05-15T13:40:18.048Z,3.71
2023-05-15T13:41:20.713Z,3.88
2023-05-15T13:42:23.381Z,4.08
2023-05-15T13:43:26.734Z,3.50
2023-05-15T13:44:29.452Z,3.30
2023-05-15T13:45:32.145Z,3.38
2023-05-15T13:46:35.219Z,3.30
2023-05-15T13:47:38.082Z,3.53
2023-05-15T13:48:41.046Z,3.64
2023-05-15T13:49:44.021Z,3.43
2023-05-15T13:50:46.901Z,3.80
2023-05-15T13:51:49.880Z,4.25
2023-05-15T13:52:52.653Z,3.83
2023-05-15T13:53:55.520Z,3.98
2023-05-15T13:54:58.291Z,4.20
2023-05-15T13:56:01.220Z,3.96
2023-05-15T13:57:04.353Z,4.27
2023-05-15T13:58:07.326Z,4.22